sensor_id;sensor_type;location;lat;lon;timestamp;temperature;humidity
774;DHT22;370;48.810;9.150;2023-08-07T00:01:23;12.10;34.30
774;DHT22;370;48.810;9.150;2023-08-07T00:03:50;12.10;34.50
774;DHT22;370;48.810;9.150;2023-08-07T00:06:17;12.00;33.70
774;DHT22;370;48.810;9.150;2023-08-07T00:08:43;12.00;32.80
774;DHT22;370;48.810;9.150;2023-08-07T00:11:12;12.00;33.00
774;DHT22;370;48.810;9.150;2023-08-07T00:13:38;12.00;34.10
774;DHT22;370;48.810;9.150;2023-08-07T00:16:05;12.00;34.10
774;DHT22;370;48.810;9.150;2023-08-07T00:18:32;12.00;32.20
774;DHT22;370;48.810;9.150;2023-08-07T00:21:00;12.10;32.30
774;DHT22;370;48.810;9.150;2023-08-07T00:23:27;12.10;31.20
774;DHT22;370;48.810;9.150;2023-08-07T00:25:53;12.20;27.90
774;DHT22;370;48.810;9.150;2023-08-07T00:28:21;12.20;27.30
774;DHT22;370;48.810;9.150;2023-08-07T00:30:48;12.30;27.80
774;DHT22;370;48.810;9.150;2023-08-07T00:33:15;12.30;26.00
774;DHT22;370;48.810;9.150;2023-08-07T00:35:41;12.40;25.70
774;DHT22;370;48.810;9.150;2023-08-07T00:38:08;12.60;23.30
774;DHT22;370;48.810;9.150;2023-08-07T00:40:38;12.70;20.90
774;DHT22;370;48.810;9.150;2023-08-07T00:43:05;12.70;20.40
774;DHT22;370;48.810;9.150;2023-08-07T00:45:36;12.80;19.20
774;DHT22;370;48.810;9.150;2023-08-07T00:48:04;12.80;19.80
774;DHT22;370;48.810;9.150;2023-08-07T00:50:31;12.90;18.30
774;DHT22;370;48.810;9.150;2023-08-07T00:52:59;12.90;16.90
774;DHT22;370;48.810;9.150;2023-08-07T00:55:26;12.90;17.90
774;DHT22;370;48.810;9.150;2023-08-07T00:57:53;13.00;17.10
774;DHT22;370;48.810;9.150;2023-08-07T01:00:20;13.00;15.80
774;DHT22;370;48.810;9.150;2023-08-07T01:02:49;13.00;15.30
774;DHT22;370;48.810;9.150;2023-08-07T01:05:17;13.00;14.90
774;DHT22;370;48.810;9.150;2023-08-07T01:07:47;13.10;15.10
774;DHT22;370;48.810;9.150;2023-08-07T01:10:16;13.10;15.00
774;DHT22;370;48.810;9.150;2023-08-07T01:12:50;13.10;15.30
774;DHT22;370;48.810;9.150;2023-08-07T01:15:24;13.10;13.80
774;DHT22;370;48.810;9.150;2023-08-07T01:17:54;13.00;14.00
774;DHT22;370;48.810;9.150;2023-08-07T01:20:21;13.00;14.20
774;DHT22;370;48.810;9.150;2023-08-07T01:22:49;13.10;13.60
774;DHT22;370;48.810;9.150;2023-08-07T01:25:16;13.10;13.40
774;DHT22;370;48.810;9.150;2023-08-07T01:27:54;13.10;12.90
774;DHT22;370;48.810;9.150;2023-08-07T01:30:29;13.10;12.00
774;DHT22;370;48.810;9.150;2023-08-07T01:33:01;13.10;11.80
774;DHT22;370;48.810;9.150;2023-08-07T01:35:34;13.10;11.40
774;DHT22;370;48.810;9.150;2023-08-07T01:38:03;13.10;11.60
774;DHT22;370;48.810;9.150;2023-08-07T01:40:31;13.10;11.10
774;DHT22;370;48.810;9.150;2023-08-07T01:42:59;13.10;10.40
774;DHT22;370;48.810;9.150;2023-08-07T01:45:26;13.10;8.70
774;DHT22;370;48.810;9.150;2023-08-07T01:47:54;13.10;9.50
774;DHT22;370;48.810;9.150;2023-08-07T01:50:21;13.10;7.80
774;DHT22;370;48.810;9.150;2023-08-07T01:52:49;13.10;7.90
774;DHT22;370;48.810;9.150;2023-08-07T01:55:18;13.10;7.80
774;DHT22;370;48.810;9.150;2023-08-07T01:57:45;13.10;7.10
774;DHT22;370;48.810;9.150;2023-08-07T02:00:12;13.20;7.20
774;DHT22;370;48.810;9.150;2023-08-07T02:02:39;13.10;7.10
774;DHT22;370;48.810;9.150;2023-08-07T02:05:06;13.10;7.10
774;DHT22;370;48.810;9.150;2023-08-07T02:07:33;13.20;7.20
774;DHT22;370;48.810;9.150;2023-08-07T02:10:00;13.20;7.20
774;DHT22;370;48.810;9.150;2023-08-07T02:12:28;13.20;7.20
774;DHT22;370;48.810;9.150;2023-08-07T02:14:57;13.20;7.00
774;DHT22;370;48.810;9.150;2023-08-07T02:17:24;13.10;7.10
774;DHT22;370;48.810;9.150;2023-08-07T02:19:51;13.10;7.10
774;DHT22;370;48.810;9.150;2023-08-07T02:22:18;13.20;6.80
774;DHT22;370;48.810;9.150;2023-08-07T02:24:45;13.20;7.20
774;DHT22;370;48.810;9.150;2023-08-07T02:27:12;13.20;7.20
774;DHT22;370;48.810;9.150;2023-08-07T02:29:40;13.10;7.30
774;DHT22;370;48.810;9.150;2023-08-07T02:32:07;13.00;8.60
774;DHT22;370;48.810;9.150;2023-08-07T02:34:34;12.90;9.30
774;DHT22;370;48.810;9.150;2023-08-07T02:37:00;12.80;8.60
774;DHT22;370;48.810;9.150;2023-08-07T02:39:27;12.80;10.40
774;DHT22;370;48.810;9.150;2023-08-07T02:41:54;12.70;10.10
774;DHT22;370;48.810;9.150;2023-08-07T02:44:21;12.70;11.30
774;DHT22;370;48.810;9.150;2023-08-07T02:46:49;12.60;12.10
774;DHT22;370;48.810;9.150;2023-08-07T02:49:15;12.70;9.50
774;DHT22;370;48.810;9.150;2023-08-07T02:51:42;12.70;9.30
774;DHT22;370;48.810;9.150;2023-08-07T02:54:09;12.70;8.70
774;DHT22;370;48.810;9.150;2023-08-07T02:56:36;12.70;7.80
774;DHT22;370;48.810;9.150;2023-08-07T02:59:02;12.70;7.80
774;DHT22;370;48.810;9.150;2023-08-07T03:01:30;12.80;6.90
774;DHT22;370;48.810;9.150;2023-08-07T03:03:58;12.70;6.90
774;DHT22;370;48.810;9.150;2023-08-07T03:06:25;12.70;6.90
774;DHT22;370;48.810;9.150;2023-08-07T03:08:51;12.60;6.80
774;DHT22;370;48.810;9.150;2023-08-07T03:11:18;12.60;6.80
774;DHT22;370;48.810;9.150;2023-08-07T03:13:45;12.50;6.70
774;DHT22;370;48.810;9.150;2023-08-07T03:16:12;12.60;7.00
774;DHT22;370;48.810;9.150;2023-08-07T03:18:38;12.50;6.70
774;DHT22;370;48.810;9.150;2023-08-07T03:21:06;12.50;7.40
774;DHT22;370;48.810;9.150;2023-08-07T03:23:33;12.50;7.30
774;DHT22;370;48.810;9.150;2023-08-07T03:26:04;12.50;7.40
774;DHT22;370;48.810;9.150;2023-08-07T03:28:32;12.60;6.80
774;DHT22;370;48.810;9.150;2023-08-07T03:30:59;12.60;6.80
774;DHT22;370;48.810;9.150;2023-08-07T03:33:26;12.70;6.90
774;DHT22;370;48.810;9.150;2023-08-07T03:35:53;12.70;6.90
774;DHT22;370;48.810;9.150;2023-08-07T03:38:21;12.70;6.90
774;DHT22;370;48.810;9.150;2023-08-07T03:40:48;12.70;6.90
774;DHT22;370;48.810;9.150;2023-08-07T03:43:14;12.70;6.90
774;DHT22;370;48.810;9.150;2023-08-07T03:45:41;12.70;6.90
774;DHT22;370;48.810;9.150;2023-08-07T03:48:08;12.70;6.90
774;DHT22;370;48.810;9.150;2023-08-07T03:50:35;12.70;6.90
774;DHT22;370;48.810;9.150;2023-08-07T03:53:03;12.70;6.90
774;DHT22;370;48.810;9.150;2023-08-07T03:55:34;12.80;6.90
774;DHT22;370;48.810;9.150;2023-08-07T03:58:01;12.80;6.90
774;DHT22;370;48.810;9.150;2023-08-07T04:00:28;12.80;6.90
774;DHT22;370;48.810;9.150;2023-08-07T04:02:55;12.80;6.20
774;DHT22;370;48.810;9.150;2023-08-07T04:05:22;12.70;6.90
774;DHT22;370;48.810;9.150;2023-08-07T04:07:49;12.70;6.90
774;DHT22;370;48.810;9.150;2023-08-07T04:10:15;12.60;6.80
774;DHT22;370;48.810;9.150;2023-08-07T04:12:43;12.60;7.30
774;DHT22;370;48.810;9.150;2023-08-07T04:15:10;12.50;7.60
774;DHT22;370;48.810;9.150;2023-08-07T04:17:37;12.40;8.00
774;DHT22;370;48.810;9.150;2023-08-07T04:20:05;12.50;8.00
774;DHT22;370;48.810;9.150;2023-08-07T04:22:32;12.40;8.50
774;DHT22;370;48.810;9.150;2023-08-07T04:24:59;12.50;8.40
774;DHT22;370;48.810;9.150;2023-08-07T04:27:26;12.50;7.50
774;DHT22;370;48.810;9.150;2023-08-07T04:29:54;12.60;6.80
774;DHT22;370;48.810;9.150;2023-08-07T04:32:21;12.70;6.90
774;DHT22;370;48.810;9.150;2023-08-07T04:34:48;12.70;6.60
774;DHT22;370;48.810;9.150;2023-08-07T04:37:15;12.80;5.90
774;DHT22;370;48.810;9.150;2023-08-07T04:39:42;12.80;5.50
774;DHT22;370;48.810;9.150;2023-08-07T04:42:09;12.90;5.30
774;DHT22;370;48.810;9.150;2023-08-07T04:44:36;13.00;4.40
774;DHT22;370;48.810;9.150;2023-08-07T04:47:04;13.00;4.30
774;DHT22;370;48.810;9.150;2023-08-07T04:49:31;13.00;3.80
774;DHT22;370;48.810;9.150;2023-08-07T04:51:58;13.10;3.70
774;DHT22;370;48.810;9.150;2023-08-07T04:54:25;13.10;4.00
774;DHT22;370;48.810;9.150;2023-08-07T04:56:52;13.20;3.30
774;DHT22;370;48.810;9.150;2023-08-07T04:59:19;13.20;3.60
774;DHT22;370;48.810;9.150;2023-08-07T05:01:45;13.20;3.50
774;DHT22;370;48.810;9.150;2023-08-07T05:04:13;13.20;3.90
774;DHT22;370;48.810;9.150;2023-08-07T05:06:40;13.30;3.40
774;DHT22;370;48.810;9.150;2023-08-07T05:09:07;13.30;2.90
774;DHT22;370;48.810;9.150;2023-08-07T05:11:34;13.30;2.80
774;DHT22;370;48.810;9.150;2023-08-07T05:14:00;13.40;2.80
774;DHT22;370;48.810;9.150;2023-08-07T05:16:27;13.40;2.80
774;DHT22;370;48.810;9.150;2023-08-07T05:18:54;13.30;2.90
774;DHT22;370;48.810;9.150;2023-08-07T05:21:22;13.40;3.10
774;DHT22;370;48.810;9.150;2023-08-07T05:23:49;13.40;3.60
774;DHT22;370;48.810;9.150;2023-08-07T05:26:18;13.50;3.00
774;DHT22;370;48.810;9.150;2023-08-07T05:28:45;13.50;2.90
774;DHT22;370;48.810;9.150;2023-08-07T05:31:12;13.60;2.80
774;DHT22;370;48.810;9.150;2023-08-07T05:33:39;13.80;2.60
774;DHT22;370;48.810;9.150;2023-08-07T05:36:06;13.80;1.80
774;DHT22;370;48.810;9.150;2023-08-07T05:38:34;13.80;1.90
774;DHT22;370;48.810;9.150;2023-08-07T05:41:01;13.90;1.50
774;DHT22;370;48.810;9.150;2023-08-07T05:43:28;14.00;1.40
774;DHT22;370;48.810;9.150;2023-08-07T05:45:55;14.10;1.00
774;DHT22;370;48.810;9.150;2023-08-07T05:48:21;14.20;1.00
774;DHT22;370;48.810;9.150;2023-08-07T05:50:48;14.20;1.00
774;DHT22;370;48.810;9.150;2023-08-07T05:53:15;14.30;1.00
774;DHT22;370;48.810;9.150;2023-08-07T05:55:43;14.40;1.00
774;DHT22;370;48.810;9.150;2023-08-07T05:58:10;14.50;1.00
774;DHT22;370;48.810;9.150;2023-08-07T06:00:37;14.70;1.00
774;DHT22;370;48.810;9.150;2023-08-07T06:03:04;14.70;1.00
774;DHT22;370;48.810;9.150;2023-08-07T06:05:31;14.80;1.00
774;DHT22;370;48.810;9.150;2023-08-07T06:07:57;14.90;1.00
774;DHT22;370;48.810;9.150;2023-08-07T06:10:24;15.00;1.00
774;DHT22;370;48.810;9.150;2023-08-07T06:12:53;15.00;1.00
774;DHT22;370;48.810;9.150;2023-08-07T06:15:20;15.10;1.00
774;DHT22;370;48.810;9.150;2023-08-07T06:17:46;15.10;1.00
774;DHT22;370;48.810;9.150;2023-08-07T06:20:13;15.10;1.00
774;DHT22;370;48.810;9.150;2023-08-07T06:22:41;15.10;1.00
774;DHT22;370;48.810;9.150;2023-08-07T06:25:08;15.10;1.00
774;DHT22;370;48.810;9.150;2023-08-07T06:27:35;15.10;1.00
774;DHT22;370;48.810;9.150;2023-08-07T06:30:04;15.10;1.00
774;DHT22;370;48.810;9.150;2023-08-07T06:32:32;15.10;1.00
774;DHT22;370;48.810;9.150;2023-08-07T06:34:58;15.10;1.00
774;DHT22;370;48.810;9.150;2023-08-07T06:37:25;15.10;1.00
774;DHT22;370;48.810;9.150;2023-08-07T06:39:52;15.20;1.00
774;DHT22;370;48.810;9.150;2023-08-07T06:42:19;15.30;1.00
774;DHT22;370;48.810;9.150;2023-08-07T06:44:46;15.40;1.00
774;DHT22;370;48.810;9.150;2023-08-07T06:47:14;15.50;1.00
774;DHT22;370;48.810;9.150;2023-08-07T06:49:41;15.60;1.00
774;DHT22;370;48.810;9.150;2023-08-07T06:52:08;15.80;1.00
774;DHT22;370;48.810;9.150;2023-08-07T06:54:34;16.00;1.00
774;DHT22;370;48.810;9.150;2023-08-07T06:57:01;16.40;1.00
774;DHT22;370;48.810;9.150;2023-08-07T06:59:28;16.50;1.00
774;DHT22;370;48.810;9.150;2023-08-07T07:01:55;16.60;1.00
774;DHT22;370;48.810;9.150;2023-08-07T07:04:23;16.90;1.00
774;DHT22;370;48.810;9.150;2023-08-07T07:06:50;17.50;1.00
774;DHT22;370;48.810;9.150;2023-08-07T07:09:17;18.10;1.00
774;DHT22;370;48.810;9.150;2023-08-07T07:11:43;18.30;1.00
774;DHT22;370;48.810;9.150;2023-08-07T07:14:10;18.00;1.00
774;DHT22;370;48.810;9.150;2023-08-07T07:16:37;17.70;1.00
774;DHT22;370;48.810;9.150;2023-08-07T07:19:04;17.50;1.00
774;DHT22;370;48.810;9.150;2023-08-07T07:21:33;17.30;1.00
774;DHT22;370;48.810;9.150;2023-08-07T07:24:00;17.10;1.00
774;DHT22;370;48.810;9.150;2023-08-07T07:26:27;16.80;1.00
774;DHT22;370;48.810;9.150;2023-08-07T07:28:54;16.80;1.00
774;DHT22;370;48.810;9.150;2023-08-07T07:31:20;16.60;1.00
774;DHT22;370;48.810;9.150;2023-08-07T07:33:48;16.40;1.00
774;DHT22;370;48.810;9.150;2023-08-07T07:36:15;16.50;1.00
774;DHT22;370;48.810;9.150;2023-08-07T07:38:45;16.50;1.00
774;DHT22;370;48.810;9.150;2023-08-07T07:41:13;16.50;1.00
774;DHT22;370;48.810;9.150;2023-08-07T07:43:40;16.60;1.00
774;DHT22;370;48.810;9.150;2023-08-07T07:46:07;16.90;1.00
774;DHT22;370;48.810;9.150;2023-08-07T07:48:33;17.30;1.00
774;DHT22;370;48.810;9.150;2023-08-07T07:51:01;18.20;1.00
774;DHT22;370;48.810;9.150;2023-08-07T07:53:28;18.50;1.00
774;DHT22;370;48.810;9.150;2023-08-07T07:55:56;18.40;1.00
774;DHT22;370;48.810;9.150;2023-08-07T07:58:24;18.00;1.00
774;DHT22;370;48.810;9.150;2023-08-07T08:00:50;17.70;1.00
774;DHT22;370;48.810;9.150;2023-08-07T08:03:19;17.50;1.00
774;DHT22;370;48.810;9.150;2023-08-07T08:05:48;17.40;1.00
774;DHT22;370;48.810;9.150;2023-08-07T08:08:15;17.40;1.00
774;DHT22;370;48.810;9.150;2023-08-07T08:10:42;17.20;1.00
774;DHT22;370;48.810;9.150;2023-08-07T08:13:11;17.10;1.00
774;DHT22;370;48.810;9.150;2023-08-07T08:15:37;17.00;1.00
774;DHT22;370;48.810;9.150;2023-08-07T08:18:04;16.80;1.00
774;DHT22;370;48.810;9.150;2023-08-07T08:20:31;16.80;1.00
774;DHT22;370;48.810;9.150;2023-08-07T08:22:58;16.90;1.00
774;DHT22;370;48.810;9.150;2023-08-07T08:25:25;17.10;1.00
774;DHT22;370;48.810;9.150;2023-08-07T08:27:52;17.30;1.00
774;DHT22;370;48.810;9.150;2023-08-07T08:30:20;17.50;1.00
774;DHT22;370;48.810;9.150;2023-08-07T08:32:48;17.50;1.00
774;DHT22;370;48.810;9.150;2023-08-07T08:35:14;17.50;1.00
774;DHT22;370;48.810;9.150;2023-08-07T08:37:41;17.80;1.00
774;DHT22;370;48.810;9.150;2023-08-07T08:40:09;18.00;1.00
774;DHT22;370;48.810;9.150;2023-08-07T08:42:39;18.20;1.00
774;DHT22;370;48.810;9.150;2023-08-07T08:45:09;18.30;1.00
774;DHT22;370;48.810;9.150;2023-08-07T08:47:38;18.60;1.00
774;DHT22;370;48.810;9.150;2023-08-07T08:50:07;19.00;1.00
774;DHT22;370;48.810;9.150;2023-08-07T08:52:37;19.50;1.00
774;DHT22;370;48.810;9.150;2023-08-07T08:55:04;20.00;1.00
774;DHT22;370;48.810;9.150;2023-08-07T08:57:32;20.00;1.00
774;DHT22;370;48.810;9.150;2023-08-07T09:00:00;20.20;1.00
774;DHT22;370;48.810;9.150;2023-08-07T09:02:27;20.40;1.00
774;DHT22;370;48.810;9.150;2023-08-07T09:04:55;20.70;1.00
774;DHT22;370;48.810;9.150;2023-08-07T09:07:22;21.70;1.00
774;DHT22;370;48.810;9.150;2023-08-07T09:09:50;22.30;1.00
774;DHT22;370;48.810;9.150;2023-08-07T09:12:20;22.10;1.00
774;DHT22;370;48.810;9.150;2023-08-07T09:14:52;22.10;1.00
774;DHT22;370;48.810;9.150;2023-08-07T09:17:22;22.20;1.00
774;DHT22;370;48.810;9.150;2023-08-07T09:19:50;21.70;1.00
774;DHT22;370;48.810;9.150;2023-08-07T09:22:18;21.10;1.00
774;DHT22;370;48.810;9.150;2023-08-07T09:24:45;20.60;1.00
774;DHT22;370;48.810;9.150;2023-08-07T09:27:12;20.30;1.00
774;DHT22;370;48.810;9.150;2023-08-07T09:29:40;19.90;1.00
774;DHT22;370;48.810;9.150;2023-08-07T09:32:07;19.70;1.00
774;DHT22;370;48.810;9.150;2023-08-07T09:34:34;19.60;1.00
774;DHT22;370;48.810;9.150;2023-08-07T09:37:01;19.60;1.00
774;DHT22;370;48.810;9.150;2023-08-07T09:39:30;20.00;1.00
774;DHT22;370;48.810;9.150;2023-08-07T09:41:56;20.30;1.00
774;DHT22;370;48.810;9.150;2023-08-07T09:44:23;20.60;1.00
774;DHT22;370;48.810;9.150;2023-08-07T09:46:50;21.60;1.00
774;DHT22;370;48.810;9.150;2023-08-07T09:49:17;22.70;1.00
774;DHT22;370;48.810;9.150;2023-08-07T09:51:45;23.00;1.00
774;DHT22;370;48.810;9.150;2023-08-07T09:54:12;23.00;1.00
774;DHT22;370;48.810;9.150;2023-08-07T09:56:41;22.80;1.00
774;DHT22;370;48.810;9.150;2023-08-07T09:59:08;22.40;1.00
774;DHT22;370;48.810;9.150;2023-08-07T10:01:37;22.00;1.00
774;DHT22;370;48.810;9.150;2023-08-07T10:04:05;22.70;1.00
774;DHT22;370;48.810;9.150;2023-08-07T10:06:33;24.70;1.00
774;DHT22;370;48.810;9.150;2023-08-07T10:09:01;25.50;1.00
774;DHT22;370;48.810;9.150;2023-08-07T10:11:29;26.10;1.00
774;DHT22;370;48.810;9.150;2023-08-07T10:13:57;25.90;1.00
774;DHT22;370;48.810;9.150;2023-08-07T10:16:26;26.60;1.00
774;DHT22;370;48.810;9.150;2023-08-07T10:18:53;27.60;1.00
774;DHT22;370;48.810;9.150;2023-08-07T10:21:20;27.40;1.00
774;DHT22;370;48.810;9.150;2023-08-07T10:23:49;27.30;1.00
774;DHT22;370;48.810;9.150;2023-08-07T10:26:17;26.20;1.00
774;DHT22;370;48.810;9.150;2023-08-07T10:28:44;25.10;1.00
774;DHT22;370;48.810;9.150;2023-08-07T10:31:14;24.40;1.00
774;DHT22;370;48.810;9.150;2023-08-07T10:33:42;23.10;1.00
774;DHT22;370;48.810;9.150;2023-08-07T10:36:09;22.40;1.00
774;DHT22;370;48.810;9.150;2023-08-07T10:38:36;21.70;1.00
774;DHT22;370;48.810;9.150;2023-08-07T10:41:06;21.00;1.00
774;DHT22;370;48.810;9.150;2023-08-07T10:43:37;20.40;1.00
774;DHT22;370;48.810;9.150;2023-08-07T10:46:05;19.90;1.00
774;DHT22;370;48.810;9.150;2023-08-07T10:48:40;19.60;1.00
774;DHT22;370;48.810;9.150;2023-08-07T10:51:07;19.30;1.00
774;DHT22;370;48.810;9.150;2023-08-07T10:53:35;19.30;1.00
774;DHT22;370;48.810;9.150;2023-08-07T10:56:03;19.60;1.00
774;DHT22;370;48.810;9.150;2023-08-07T10:58:31;19.90;1.00
774;DHT22;370;48.810;9.150;2023-08-07T11:01:17;20.30;1.00
774;DHT22;370;48.810;9.150;2023-08-07T11:03:49;20.70;1.00
774;DHT22;370;48.810;9.150;2023-08-07T11:06:16;20.90;1.00
774;DHT22;370;48.810;9.150;2023-08-07T11:08:43;20.80;1.00
774;DHT22;370;48.810;9.150;2023-08-07T11:11:10;21.00;1.00
774;DHT22;370;48.810;9.150;2023-08-07T11:13:37;21.00;1.00
774;DHT22;370;48.810;9.150;2023-08-07T11:16:04;21.10;1.00
774;DHT22;370;48.810;9.150;2023-08-07T11:18:31;20.80;1.00
774;DHT22;370;48.810;9.150;2023-08-07T11:20:59;20.20;1.00
774;DHT22;370;48.810;9.150;2023-08-07T11:23:27;19.60;1.00
774;DHT22;370;48.810;9.150;2023-08-07T11:25:54;19.50;1.00
774;DHT22;370;48.810;9.150;2023-08-07T11:28:22;19.30;1.00
774;DHT22;370;48.810;9.150;2023-08-07T11:30:50;19.30;1.00
774;DHT22;370;48.810;9.150;2023-08-07T11:33:18;19.40;1.00
774;DHT22;370;48.810;9.150;2023-08-07T11:35:45;19.20;1.00
774;DHT22;370;48.810;9.150;2023-08-07T11:38:15;19.10;1.00
774;DHT22;370;48.810;9.150;2023-08-07T11:40:42;19.00;1.00
774;DHT22;370;48.810;9.150;2023-08-07T11:43:09;18.60;1.00
774;DHT22;370;48.810;9.150;2023-08-07T11:45:36;18.30;1.00
774;DHT22;370;48.810;9.150;2023-08-07T11:48:03;18.10;1.00
774;DHT22;370;48.810;9.150;2023-08-07T11:50:30;18.00;1.00
774;DHT22;370;48.810;9.150;2023-08-07T11:52:58;18.00;1.00
774;DHT22;370;48.810;9.150;2023-08-07T11:55:29;18.00;1.00
774;DHT22;370;48.810;9.150;2023-08-07T11:57:56;17.90;1.00
774;DHT22;370;48.810;9.150;2023-08-07T12:00:25;17.70;1.00
774;DHT22;370;48.810;9.150;2023-08-07T12:02:53;17.70;1.00
774;DHT22;370;48.810;9.150;2023-08-07T12:05:20;17.80;1.00
774;DHT22;370;48.810;9.150;2023-08-07T12:07:47;17.90;1.00
774;DHT22;370;48.810;9.150;2023-08-07T12:10:14;18.20;1.00
774;DHT22;370;48.810;9.150;2023-08-07T12:12:42;18.40;1.00
774;DHT22;370;48.810;9.150;2023-08-07T12:15:10;18.60;1.00
774;DHT22;370;48.810;9.150;2023-08-07T12:17:37;18.80;1.00
774;DHT22;370;48.810;9.150;2023-08-07T12:20:05;19.20;1.00
774;DHT22;370;48.810;9.150;2023-08-07T12:22:33;19.30;1.00
774;DHT22;370;48.810;9.150;2023-08-07T12:25:02;19.50;1.00
774;DHT22;370;48.810;9.150;2023-08-07T12:27:29;19.70;1.00
774;DHT22;370;48.810;9.150;2023-08-07T12:29:57;20.20;1.00
774;DHT22;370;48.810;9.150;2023-08-07T12:32:24;20.50;1.00
774;DHT22;370;48.810;9.150;2023-08-07T12:34:51;20.70;1.00
774;DHT22;370;48.810;9.150;2023-08-07T12:37:19;20.80;1.00
774;DHT22;370;48.810;9.150;2023-08-07T12:39:45;20.50;1.00
774;DHT22;370;48.810;9.150;2023-08-07T12:42:12;20.50;1.00
774;DHT22;370;48.810;9.150;2023-08-07T12:44:39;20.80;1.00
774;DHT22;370;48.810;9.150;2023-08-07T12:47:07;21.20;1.00
774;DHT22;370;48.810;9.150;2023-08-07T12:49:34;21.70;1.00
774;DHT22;370;48.810;9.150;2023-08-07T12:52:01;22.40;1.00
774;DHT22;370;48.810;9.150;2023-08-07T12:54:27;22.30;1.00
774;DHT22;370;48.810;9.150;2023-08-07T12:56:54;22.30;1.00
774;DHT22;370;48.810;9.150;2023-08-07T12:59:21;22.40;1.00
774;DHT22;370;48.810;9.150;2023-08-07T13:01:48;22.70;1.00
774;DHT22;370;48.810;9.150;2023-08-07T13:04:16;22.70;1.00
774;DHT22;370;48.810;9.150;2023-08-07T13:06:44;22.70;1.00
774;DHT22;370;48.810;9.150;2023-08-07T13:09:10;22.50;1.00
774;DHT22;370;48.810;9.150;2023-08-07T13:11:37;22.30;1.00
774;DHT22;370;48.810;9.150;2023-08-07T13:14:04;22.00;1.00
774;DHT22;370;48.810;9.150;2023-08-07T13:16:31;21.90;1.00
774;DHT22;370;48.810;9.150;2023-08-07T13:18:58;21.70;1.00
774;DHT22;370;48.810;9.150;2023-08-07T13:21:26;21.40;1.00
774;DHT22;370;48.810;9.150;2023-08-07T13:23:52;21.10;1.00
774;DHT22;370;48.810;9.150;2023-08-07T13:26:19;20.70;1.00
774;DHT22;370;48.810;9.150;2023-08-07T13:28:46;20.40;1.00
774;DHT22;370;48.810;9.150;2023-08-07T13:31:12;20.30;1.00
774;DHT22;370;48.810;9.150;2023-08-07T13:33:39;20.40;1.00
774;DHT22;370;48.810;9.150;2023-08-07T13:36:06;20.90;1.00
774;DHT22;370;48.810;9.150;2023-08-07T13:38:34;21.40;1.00
774;DHT22;370;48.810;9.150;2023-08-07T13:41:01;22.00;1.00
774;DHT22;370;48.810;9.150;2023-08-07T13:43:27;24.10;1.00
774;DHT22;370;48.810;9.150;2023-08-07T13:45:54;26.00;1.00
774;DHT22;370;48.810;9.150;2023-08-07T13:48:21;26.10;1.00
774;DHT22;370;48.810;9.150;2023-08-07T13:50:51;25.40;1.00
774;DHT22;370;48.810;9.150;2023-08-07T13:53:18;24.40;1.00
774;DHT22;370;48.810;9.150;2023-08-07T13:55:47;23.80;1.00
774;DHT22;370;48.810;9.150;2023-08-07T13:58:14;23.40;1.00
774;DHT22;370;48.810;9.150;2023-08-07T14:00:41;22.60;1.00
774;DHT22;370;48.810;9.150;2023-08-07T14:03:08;22.00;1.00
774;DHT22;370;48.810;9.150;2023-08-07T14:05:37;21.60;1.00
774;DHT22;370;48.810;9.150;2023-08-07T14:08:04;21.30;1.00
774;DHT22;370;48.810;9.150;2023-08-07T14:10:31;21.10;1.00
774;DHT22;370;48.810;9.150;2023-08-07T14:12:59;21.20;1.00
774;DHT22;370;48.810;9.150;2023-08-07T14:15:26;21.90;1.00
774;DHT22;370;48.810;9.150;2023-08-07T14:17:53;23.80;1.00
774;DHT22;370;48.810;9.150;2023-08-07T14:20:21;26.10;1.00
774;DHT22;370;48.810;9.150;2023-08-07T14:22:48;26.10;1.00
774;DHT22;370;48.810;9.150;2023-08-07T14:25:15;25.00;1.00
774;DHT22;370;48.810;9.150;2023-08-07T14:27:42;24.20;1.00
774;DHT22;370;48.810;9.150;2023-08-07T14:30:11;23.20;1.00
774;DHT22;370;48.810;9.150;2023-08-07T14:32:38;22.30;1.00
774;DHT22;370;48.810;9.150;2023-08-07T14:35:06;21.70;1.00
774;DHT22;370;48.810;9.150;2023-08-07T14:37:32;21.20;1.00
774;DHT22;370;48.810;9.150;2023-08-07T14:39:59;21.50;1.00
774;DHT22;370;48.810;9.150;2023-08-07T14:42:26;21.60;1.00
774;DHT22;370;48.810;9.150;2023-08-07T14:44:53;21.70;1.00
774;DHT22;370;48.810;9.150;2023-08-07T14:47:21;23.10;1.00
774;DHT22;370;48.810;9.150;2023-08-07T14:49:48;25.50;1.00
774;DHT22;370;48.810;9.150;2023-08-07T14:52:14;26.70;1.00
774;DHT22;370;48.810;9.150;2023-08-07T14:54:41;27.70;1.00
774;DHT22;370;48.810;9.150;2023-08-07T14:57:08;28.80;1.00
774;DHT22;370;48.810;9.150;2023-08-07T14:59:35;28.60;1.00
774;DHT22;370;48.810;9.150;2023-08-07T15:02:02;27.10;1.00
774;DHT22;370;48.810;9.150;2023-08-07T15:04:30;25.80;1.00
774;DHT22;370;48.810;9.150;2023-08-07T15:06:56;24.80;1.00
774;DHT22;370;48.810;9.150;2023-08-07T15:09:23;23.90;1.00
774;DHT22;370;48.810;9.150;2023-08-07T15:11:51;22.90;1.00
774;DHT22;370;48.810;9.150;2023-08-07T15:14:17;22.10;1.00
774;DHT22;370;48.810;9.150;2023-08-07T15:16:44;21.60;1.00
774;DHT22;370;48.810;9.150;2023-08-07T15:19:11;21.20;1.00
774;DHT22;370;48.810;9.150;2023-08-07T15:21:39;20.90;1.00
774;DHT22;370;48.810;9.150;2023-08-07T15:24:06;20.60;1.00
774;DHT22;370;48.810;9.150;2023-08-07T15:26:33;20.40;1.00
774;DHT22;370;48.810;9.150;2023-08-07T15:28:59;20.40;1.00
774;DHT22;370;48.810;9.150;2023-08-07T15:31:26;20.30;1.00
774;DHT22;370;48.810;9.150;2023-08-07T15:33:53;20.30;1.00
774;DHT22;370;48.810;9.150;2023-08-07T15:36:21;20.40;1.00
774;DHT22;370;48.810;9.150;2023-08-07T15:38:49;20.60;1.00
774;DHT22;370;48.810;9.150;2023-08-07T15:41:16;21.50;1.00
774;DHT22;370;48.810;9.150;2023-08-07T15:43:43;22.70;1.00
774;DHT22;370;48.810;9.150;2023-08-07T15:46:10;23.10;1.00
774;DHT22;370;48.810;9.150;2023-08-07T15:48:37;23.10;1.00
774;DHT22;370;48.810;9.150;2023-08-07T15:51:04;22.70;1.00
774;DHT22;370;48.810;9.150;2023-08-07T15:53:30;22.20;1.00
774;DHT22;370;48.810;9.150;2023-08-07T15:55:58;21.90;1.00
774;DHT22;370;48.810;9.150;2023-08-07T15:58:25;21.60;1.00
774;DHT22;370;48.810;9.150;2023-08-07T16:00:52;21.20;1.00
774;DHT22;370;48.810;9.150;2023-08-07T16:03:19;20.90;1.00
774;DHT22;370;48.810;9.150;2023-08-07T16:05:47;20.70;1.00
774;DHT22;370;48.810;9.150;2023-08-07T16:08:14;20.70;1.00
774;DHT22;370;48.810;9.150;2023-08-07T16:10:41;20.80;1.00
774;DHT22;370;48.810;9.150;2023-08-07T16:13:09;20.90;1.00
774;DHT22;370;48.810;9.150;2023-08-07T16:15:36;21.50;1.00
774;DHT22;370;48.810;9.150;2023-08-07T16:18:03;21.70;1.00
774;DHT22;370;48.810;9.150;2023-08-07T16:20:30;21.70;1.00
774;DHT22;370;48.810;9.150;2023-08-07T16:22:56;21.60;1.00
774;DHT22;370;48.810;9.150;2023-08-07T16:25:23;21.40;1.00
774;DHT22;370;48.810;9.150;2023-08-07T16:27:50;21.30;1.00
774;DHT22;370;48.810;9.150;2023-08-07T16:30:18;21.10;1.00
774;DHT22;370;48.810;9.150;2023-08-07T16:32:45;20.70;1.00
774;DHT22;370;48.810;9.150;2023-08-07T16:35:12;20.50;1.00
774;DHT22;370;48.810;9.150;2023-08-07T16:37:39;20.50;1.00
774;DHT22;370;48.810;9.150;2023-08-07T16:40:08;20.40;1.00
774;DHT22;370;48.810;9.150;2023-08-07T16:42:35;20.30;1.00
774;DHT22;370;48.810;9.150;2023-08-07T16:45:03;20.20;1.00
774;DHT22;370;48.810;9.150;2023-08-07T16:47:32;20.00;1.00
774;DHT22;370;48.810;9.150;2023-08-07T16:49:58;19.90;1.00